sensor_id;sensor_type;location;lat;lon;timestamp;pressure;altitude;pressure_sealevel;temperature;humidity
21879;BME280;27908;42.708;23.278;2023-07-29T00:01:49;49867.72;;;-136.69;60.19
21879;BME280;27908;42.708;23.278;2023-07-29T00:04:15;49828.31;;;-136.69;60.09
21879;BME280;27908;42.708;23.278;2023-07-29T00:06:40;49846.03;;;-136.69;59.95
21879;BME280;27908;42.708;23.278;2023-07-29T00:09:06;49851.97;;;-136.69;60.20
21879;BME280;27908;42.708;23.278;2023-07-29T00:11:31;49853.94;;;-136.69;59.83
21879;BME280;27908;42.708;23.278;2023-07-29T00:14:01;49830.28;;;-136.69;60.07
21879;BME280;27908;42.708;23.278;2023-07-29T00:16:27;49830.28;;;-136.69;60.28
21879;BME280;27908;42.708;23.278;2023-07-29T00:18:52;49832.25;;;-136.69;60.20
21879;BME280;27908;42.708;23.278;2023-07-29T00:21:18;49840.16;;;-136.69;59.66
21879;BME280;27908;42.708;23.278;2023-07-29T00:23:44;49822.41;;;-136.69;59.84
21879;BME280;27908;42.708;23.278;2023-07-29T00:26:10;49822.41;;;-136.69;60.08
21879;BME280;27908;42.708;23.278;2023-07-29T00:28:35;49844.09;;;-136.69;61.03
21879;BME280;27908;42.708;23.278;2023-07-29T00:31:01;49838.16;;;-136.69;62.04
21879;BME280;27908;42.708;23.278;2023-07-29T00:33:27;49810.59;;;-136.69;61.59
21879;BME280;27908;42.708;23.278;2023-07-29T00:35:52;49828.31;;;-136.69;62.01
21879;BME280;27908;42.708;23.278;2023-07-29T00:38:18;49853.94;;;-136.69;61.45
21879;BME280;27908;42.708;23.278;2023-07-29T00:40:43;49836.19;;;-136.69;61.50
21879;BME280;27908;42.708;23.278;2023-07-29T00:43:09;49869.69;;;-136.69;61.13
21879;BME280;27908;42.708;23.278;2023-07-29T00:45:34;49830.28;;;-136.69;61.49
21879;BME280;27908;42.708;23.278;2023-07-29T00:48:01;49834.22;;;-136.69;63.05
21879;BME280;27908;42.708;23.278;2023-07-29T00:50:26;49806.66;;;-136.69;63.34
21879;BME280;27908;42.708;23.278;2023-07-29T00:52:54;49820.44;;;-136.69;63.48
21879;BME280;27908;42.708;23.278;2023-07-29T00:55:19;49818.47;;;-136.69;63.80
21879;BME280;27908;42.708;23.278;2023-07-29T00:57:45;49826.34;;;-136.69;63.81
21879;BME280;27908;42.708;23.278;2023-07-29T01:00:14;49822.41;;;-136.69;64.07
21879;BME280;27908;42.708;23.278;2023-07-29T01:02:39;49816.50;;;-136.69;64.09
21879;BME280;27908;42.708;23.278;2023-07-29T01:05:05;49812.56;;;-136.69;63.96
21879;BME280;27908;42.708;23.278;2023-07-29T01:13:18;49783.03;;;-136.69;66.71
21879;BME280;27908;42.708;23.278;2023-07-29T01:15:54;49785.00;;;-136.69;66.41
21879;BME280;27908;42.708;23.278;2023-07-29T01:18:29;49785.00;;;-136.69;66.66
21879;BME280;27908;42.708;23.278;2023-07-29T01:20:59;49796.81;;;-136.69;66.79
21879;BME280;27908;42.708;23.278;2023-07-29T01:23:29;49763.34;;;-136.69;68.18
21879;BME280;27908;42.708;23.278;2023-07-29T01:25:54;49800.75;;;-136.69;67.98
21879;BME280;27908;42.708;23.278;2023-07-29T01:28:20;49820.44;;;-136.69;67.87
21879;BME280;27908;42.708;23.278;2023-07-29T01:30:49;49792.88;;;-136.69;67.73
21879;BME280;27908;42.708;23.278;2023-07-29T01:33:20;49794.84;;;-136.69;67.56
21879;BME280;27908;42.708;23.278;2023-07-29T01:35:52;49769.25;;;-136.69;68.26
21879;BME280;27908;42.708;23.278;2023-07-29T01:38:26;49781.06;;;-136.69;68.59
21879;BME280;27908;42.708;23.278;2023-07-29T01:40:54;49773.19;;;-136.69;69.97
21879;BME280;27908;42.708;23.278;2023-07-29T01:43:20;49777.13;;;-136.69;69.65
21879;BME280;27908;42.708;23.278;2023-07-29T01:45:49;49790.91;;;-136.69;69.41
21879;BME280;27908;42.708;23.278;2023-07-29T01:48:14;49802.72;;;-136.69;68.78
21879;BME280;27908;42.708;23.278;2023-07-29T01:50:40;49800.75;;;-136.69;68.91
21879;BME280;27908;42.708;23.278;2023-07-29T01:53:05;49820.44;;;-136.69;67.95
21879;BME280;27908;42.708;23.278;2023-07-29T01:55:31;49785.00;;;-136.69;68.63
21879;BME280;27908;42.708;23.278;2023-07-29T01:57:56;49763.34;;;-136.69;69.32
21879;BME280;27908;42.708;23.278;2023-07-29T02:00:22;49798.78;;;-136.69;69.02
21879;BME280;27908;42.708;23.278;2023-07-29T02:02:47;49781.06;;;-136.69;69.02
21879;BME280;27908;42.708;23.278;2023-07-29T02:05:13;49769.25;;;-136.69;68.42
21879;BME280;27908;42.708;23.278;2023-07-29T02:07:38;49771.22;;;-136.69;68.70
21879;BME280;27908;42.708;23.278;2023-07-29T02:10:04;49783.03;;;-136.69;68.35
21879;BME280;27908;42.708;23.278;2023-07-29T02:12:29;49785.00;;;-136.69;68.28
21879;BME280;27908;42.708;23.278;2023-07-29T02:14:55;49779.09;;;-136.69;68.70
21879;BME280;27908;42.708;23.278;2023-07-29T02:17:20;49771.22;;;-136.69;68.70
21879;BME280;27908;42.708;23.278;2023-07-29T02:19:46;49765.31;;;-136.69;68.85
21879;BME280;27908;42.708;23.278;2023-07-29T02:22:16;49786.97;;;-136.69;69.64
21879;BME280;27908;42.708;23.278;2023-07-29T02:24:42;49806.66;;;-136.69;70.06
21879;BME280;27908;42.708;23.278;2023-07-29T02:27:07;49786.97;;;-136.69;69.84
21879;BME280;27908;42.708;23.278;2023-07-29T02:29:33;49763.34;;;-136.69;70.27
21879;BME280;27908;42.708;23.278;2023-07-29T02:31:59;49800.75;;;-136.69;70.42
21879;BME280;27908;42.708;23.278;2023-07-29T02:34:25;49757.44;;;-136.69;70.91
21879;BME280;27908;42.708;23.278;2023-07-29T02:36:50;49771.22;;;-136.69;71.17
21879;BME280;27908;42.708;23.278;2023-07-29T02:39:16;49749.56;;;-136.69;71.06
21879;BME280;27908;42.708;23.278;2023-07-29T02:41:41;49753.50;;;-136.69;71.40
21879;BME280;27908;42.708;23.278;2023-07-29T02:44:07;49832.25;;;-136.69;71.88
21879;BME280;27908;42.708;23.278;2023-07-29T02:46:32;49783.03;;;-136.69;72.40
21879;BME280;27908;42.708;23.278;2023-07-29T02:48:57;49767.28;;;-136.69;71.72
21879;BME280;27908;42.708;23.278;2023-07-29T02:51:23;49777.13;;;-136.69;72.60
21879;BME280;27908;42.708;23.278;2023-07-29T02:53:48;49792.88;;;-136.69;72.80
21879;BME280;27908;42.708;23.278;2023-07-29T02:56:14;49737.75;;;-136.69;72.51
21879;BME280;27908;42.708;23.278;2023-07-29T02:58:39;49729.88;;;-136.69;73.03
21879;BME280;27908;42.708;23.278;2023-07-29T03:01:06;49783.03;;;-136.69;72.91
21879;BME280;27908;42.708;23.278;2023-07-29T03:03:32;49749.56;;;-136.69;73.15
21879;BME280;27908;42.708;23.278;2023-07-29T03:06:05;49735.78;;;-136.69;72.95
21879;BME280;27908;42.708;23.278;2023-07-29T03:08:30;49745.63;;;-136.69;73.60
21879;BME280;27908;42.708;23.278;2023-07-29T03:10:56;49765.31;;;-136.69;73.89
21879;BME280;27908;42.708;23.278;2023-07-29T03:13:22;49747.59;;;-136.69;73.87
21879;BME280;27908;42.708;23.278;2023-07-29T03:15:47;49765.31;;;-136.69;73.93
21879;BME280;27908;42.708;23.278;2023-07-29T03:18:13;49733.81;;;-136.69;74.50
21879;BME280;27908;42.708;23.278;2023-07-29T03:20:38;49769.25;;;-136.69;74.77
21879;BME280;27908;42.708;23.278;2023-07-29T03:23:04;49737.75;;;-136.69;75.38
21879;BME280;27908;42.708;23.278;2023-07-29T03:25:29;49757.44;;;-136.69;75.35
21879;BME280;27908;42.708;23.278;2023-07-29T03:27:55;49743.66;;;-136.69;75.46
21879;BME280;27908;42.708;23.278;2023-07-29T03:30:21;49755.47;;;-136.69;75.27
21879;BME280;27908;42.708;23.278;2023-07-29T03:32:47;49759.41;;;-136.69;74.88
21879;BME280;27908;42.708;23.278;2023-07-29T03:35:12;49745.63;;;-136.69;74.52
21879;BME280;27908;42.708;23.278;2023-07-29T03:37:38;49755.47;;;-136.69;74.46
21879;BME280;27908;42.708;23.278;2023-07-29T03:40:04;49757.44;;;-136.69;74.35
21879;BME280;27908;42.708;23.278;2023-07-29T03:42:29;49749.56;;;-136.69;74.12
21879;BME280;27908;42.708;23.278;2023-07-29T03:44:55;49777.13;;;-136.69;73.74
21879;BME280;27908;42.708;23.278;2023-07-29T03:47:20;49767.28;;;-136.69;73.83
21879;BME280;27908;42.708;23.278;2023-07-29T03:49:45;49769.25;;;-136.69;74.29
21879;BME280;27908;42.708;23.278;2023-07-29T03:52:11;49751.53;;;-136.69;73.15
21879;BME280;27908;42.708;23.278;2023-07-29T03:54:36;49775.16;;;-136.69;72.44
21879;BME280;27908;42.708;23.278;2023-07-29T03:57:02;49800.75;;;-136.69;71.46
21879;BME280;27908;42.708;23.278;2023-07-29T03:59:27;49739.72;;;-136.69;70.49
21879;BME280;27908;42.708;23.278;2023-07-29T04:01:53;49771.22;;;-136.69;70.58
21879;BME280;27908;42.708;23.278;2023-07-29T04:04:18;49794.84;;;-136.69;70.61
21879;BME280;27908;42.708;23.278;2023-07-29T04:06:44;49796.81;;;-136.69;70.33
21879;BME280;27908;42.708;23.278;2023-07-29T04:09:09;49781.06;;;-136.69;69.89
21879;BME280;27908;42.708;23.278;2023-07-29T04:11:35;49832.25;;;-136.69;70.12
21879;BME280;27908;42.708;23.278;2023-07-29T04:14:00;49859.84;;;-136.69;69.89
21879;BME280;27908;42.708;23.278;2023-07-29T04:16:26;49808.63;;;-136.69;68.76
21879;BME280;27908;42.708;23.278;2023-07-29T04:18:52;49798.78;;;-136.69;67.19
21879;BME280;27908;42.708;23.278;2023-07-29T04:21:17;49828.31;;;-136.69;66.58
21879;BME280;27908;42.708;23.278;2023-07-29T04:23:42;49816.50;;;-136.69;66.09
21879;BME280;27908;42.708;23.278;2023-07-29T04:26:08;49851.97;;;-136.69;65.49
21879;BME280;27908;42.708;23.278;2023-07-29T04:28:33;49848.03;;;-136.69;64.95
21879;BME280;27908;42.708;23.278;2023-07-29T04:30:58;49790.91;;;-136.69;64.86
21879;BME280;27908;42.708;23.278;2023-07-29T04:33:25;49842.13;;;-136.69;64.84
21879;BME280;27908;42.708;23.278;2023-07-29T04:35:50;49840.16;;;-136.69;64.36
21879;BME280;27908;42.708;23.278;2023-07-29T04:38:15;49836.19;;;-136.69;64.05
21879;BME280;27908;42.708;23.278;2023-07-29T04:40:41;49840.16;;;-136.69;64.43
21879;BME280;27908;42.708;23.278;2023-07-29T04:43:06;49840.16;;;-136.69;63.39
21879;BME280;27908;42.708;23.278;2023-07-29T04:45:32;49861.81;;;-136.69;63.57
21879;BME280;27908;42.708;23.278;2023-07-29T04:47:58;49848.03;;;-136.69;64.63
21879;BME280;27908;42.708;23.278;2023-07-29T04:50:25;49851.97;;;-136.69;64.15
21879;BME280;27908;42.708;23.278;2023-07-29T04:52:51;49887.41;;;-136.69;63.75
21879;BME280;27908;42.708;23.278;2023-07-29T04:55:17;49871.66;;;-136.69;63.64
21879;BME280;27908;42.708;23.278;2023-07-29T04:57:43;49901.19;;;-136.69;62.32
21879;BME280;27908;42.708;23.278;2023-07-29T05:00:09;49850.00;;;-136.69;62.48
21879;BME280;27908;42.708;23.278;2023-07-29T05:02:35;49887.41;;;-136.69;62.69
21879;BME280;27908;42.708;23.278;2023-07-29T05:05:01;50023.25;;;-136.69;62.15
21879;BME280;27908;42.708;23.278;2023-07-29T05:07:26;49875.59;;;-136.69;61.98
21879;BME280;27908;42.708;23.278;2023-07-29T05:09:52;49895.28;;;-136.69;60.41
21879;BME280;27908;42.708;23.278;2023-07-29T05:12:17;49914.97;;;-136.69;59.15
21879;BME280;27908;42.708;23.278;2023-07-29T05:14:43;49905.13;;;-136.69;59.55
21879;BME280;27908;42.708;23.278;2023-07-29T05:17:08;49938.59;;;-136.69;57.44
21879;BME280;27908;42.708;23.278;2023-07-29T05:19:33;49928.75;;;-136.69;57.43
21879;BME280;27908;42.708;23.278;2023-07-29T05:21:59;49940.56;;;-136.69;58.54
21879;BME280;27908;42.708;23.278;2023-07-29T05:24:24;49954.34;;;-136.69;57.25
21879;BME280;27908;42.708;23.278;2023-07-29T05:26:50;49964.19;;;-136.69;56.47
21879;BME280;27908;42.708;23.278;2023-07-29T05:29:15;49954.34;;;-136.69;56.34
21879;BME280;27908;42.708;23.278;2023-07-29T05:31:41;49970.09;;;-136.69;56.95
21879;BME280;27908;42.708;23.278;2023-07-29T05:34:06;49960.25;;;-136.69;55.74
21879;BME280;27908;42.708;23.278;2023-07-29T05:36:32;50005.53;;;-136.69;55.28
21879;BME280;27908;42.708;23.278;2023-07-29T05:38:58;49997.66;;;-136.69;54.66
21879;BME280;27908;42.708;23.278;2023-07-29T05:41:24;50005.53;;;-136.69;54.82
21879;BME280;27908;42.708;23.278;2023-07-29T05:43:51;50013.41;;;-136.69;54.34
21879;BME280;27908;42.708;23.278;2023-07-29T05:46:16;50035.06;;;-136.69;53.52
21879;BME280;27908;42.708;23.278;2023-07-29T05:48:41;50048.84;;;-136.69;53.27
21879;BME280;27908;42.708;23.278;2023-07-29T05:51:07;50064.59;;;-136.69;53.10
21879;BME280;27908;42.708;23.278;2023-07-29T05:53:32;50052.78;;;-136.69;52.26
21879;BME280;27908;42.708;23.278;2023-07-29T05:55:58;50078.38;;;-136.69;51.22
21879;BME280;27908;42.708;23.278;2023-07-29T05:58:23;50076.41;;;-136.69;50.34
21879;BME280;27908;42.708;23.278;2023-07-29T06:00:48;50078.38;;;-136.69;50.52
21879;BME280;27908;42.708;23.278;2023-07-29T06:03:14;50068.53;;;-136.69;50.71
21879;BME280;27908;42.708;23.278;2023-07-29T06:05:39;50123.69;;;-136.69;49.77
21879;BME280;27908;42.708;23.278;2023-07-29T06:08:05;50107.91;;;-136.69;49.28
21879;BME280;27908;42.708;23.278;2023-07-29T06:10:30;50131.56;;;-136.69;47.92
21879;BME280;27908;42.708;23.278;2023-07-29T06:12:56;50107.91;;;-136.69;48.77
21879;BME280;27908;42.708;23.278;2023-07-29T06:15:21;50121.72;;;-136.69;48.31
21879;BME280;27908;42.708;23.278;2023-07-29T06:17:48;50167.00;;;-136.69;48.44
21879;BME280;27908;42.708;23.278;2023-07-29T06:20:14;50170.94;;;-136.69;47.11
21879;BME280;27908;42.708;23.278;2023-07-29T06:22:41;50155.19;;;-136.69;47.40
21879;BME280;27908;42.708;23.278;2023-07-29T06:25:06;50200.47;;;-136.69;47.53
21879;BME280;27908;42.708;23.278;2023-07-29T06:27:32;50176.84;;;-136.69;47.68
21879;BME280;27908;42.708;23.278;2023-07-29T06:29:57;50233.94;;;-136.69;46.73
21879;BME280;27908;42.708;23.278;2023-07-29T06:32:22;50184.72;;;-136.69;46.36
21879;BME280;27908;42.708;23.278;2023-07-29T06:34:48;50182.75;;;-136.69;46.08
21879;BME280;27908;42.708;23.278;2023-07-29T06:37:13;50214.25;;;-136.69;45.71
21879;BME280;27908;42.708;23.278;2023-07-29T06:39:39;50235.91;;;-136.69;45.31
21879;BME280;27908;42.708;23.278;2023-07-29T06:42:04;50245.75;;;-136.69;45.59
21879;BME280;27908;42.708;23.278;2023-07-29T06:44:30;50267.41;;;-136.69;45.37
21879;BME280;27908;42.708;23.278;2023-07-29T06:46:57;50261.50;;;-136.69;44.51
21879;BME280;27908;42.708;23.278;2023-07-29T06:49:23;50259.53;;;-136.69;44.03
21879;BME280;27908;42.708;23.278;2023-07-29T06:51:48;50235.91;;;-136.69;43.97
21879;BME280;27908;42.708;23.278;2023-07-29T06:54:15;50273.31;;;-136.69;43.47
21879;BME280;27908;42.708;23.278;2023-07-29T06:56:41;50277.25;;;-136.69;43.12
21879;BME280;27908;42.708;23.278;2023-07-29T06:59:06;50265.44;;;-136.69;43.73
21879;BME280;27908;42.708;23.278;2023-07-29T07:01:32;50285.13;;;-136.69;43.31
21879;BME280;27908;42.708;23.278;2023-07-29T07:03:57;50298.94;;;-136.69;43.38
21879;BME280;27908;42.708;23.278;2023-07-29T07:06:23;50310.75;;;-136.69;43.83
21879;BME280;27908;42.708;23.278;2023-07-29T07:08:50;50308.78;;;-136.69;43.03
21879;BME280;27908;42.708;23.278;2023-07-29T07:11:15;50308.78;;;-136.69;42.28
21879;BME280;27908;42.708;23.278;2023-07-29T07:13:41;50342.25;;;-136.69;42.17
21879;BME280;27908;42.708;23.278;2023-07-29T07:16:06;50354.06;;;-136.69;41.81
21879;BME280;27908;42.708;23.278;2023-07-29T07:18:32;50350.13;;;-136.69;41.75
21879;BME280;27908;42.708;23.278;2023-07-29T07:20:57;50336.34;;;-136.69;41.13
21879;BME280;27908;42.708;23.278;2023-07-29T07:23:22;50383.59;;;-136.69;41.50
21879;BME280;27908;42.708;23.278;2023-07-29T07:25:48;50381.63;;;-136.69;40.78
21879;BME280;27908;42.708;23.278;2023-07-29T07:28:13;50371.78;;;-136.69;41.20
21879;BME280;27908;42.708;23.278;2023-07-29T07:30:42;50399.34;;;-136.69;39.88
21879;BME280;27908;42.708;23.278;2023-07-29T07:33:07;50367.84;;;-136.69;40.27
21879;BME280;27908;42.708;23.278;2023-07-29T07:35:33;50403.28;;;-136.69;39.63
21879;BME280;27908;42.708;23.278;2023-07-29T07:37:58;50421.00;;;-136.69;40.93
21879;BME280;27908;42.708;23.278;2023-07-29T07:40:27;50464.34;;;-136.69;39.71
21879;BME280;27908;42.708;23.278;2023-07-29T07:42:52;50462.38;;;-136.69;38.69
21879;BME280;27908;42.708;23.278;2023-07-29T07:45:18;50493.88;;;-136.69;38.84
21879;BME280;27908;42.708;23.278;2023-07-29T07:47:43;50484.03;;;-136.69;38.68
21879;BME280;27908;42.708;23.278;2023-07-29T07:50:09;50523.41;;;-136.69;37.38
21879;BME280;27908;42.708;23.278;2023-07-29T07:52:34;50499.78;;;-136.69;37.27
21879;BME280;27908;42.708;23.278;2023-07-29T07:55:00;50474.19;;;-136.69;37.59
21879;BME280;27908;42.708;23.278;2023-07-29T07:57:25;50529.31;;;-136.69;36.93
21879;BME280;27908;42.708;23.278;2023-07-29T07:59:50;50533.25;;;-136.69;37.15
21879;BME280;27908;42.708;23.278;2023-07-29T08:02:17;50543.09;;;-136.69;36.33
21879;BME280;27908;42.708;23.278;2023-07-29T08:04:43;50517.50;;;-136.69;36.69
21879;BME280;27908;42.708;23.278;2023-07-29T08:07:08;50562.78;;;-136.69;36.10
21879;BME280;27908;42.708;23.278;2023-07-29T08:09:34;50566.75;;;-136.69;36.50
21879;BME280;27908;42.708;23.278;2023-07-29T08:11:59;50562.78;;;-136.69;35.45
21879;BME280;27908;42.708;23.278;2023-07-29T08:14:25;50637.63;;;-136.69;35.12
21879;BME280;27908;42.708;23.278;2023-07-29T08:16:51;50586.44;;;-136.69;34.90
21879;BME280;27908;42.708;23.278;2023-07-29T08:19:17;50621.88;;;-136.69;35.06
21879;BME280;27908;42.708;23.278;2023-07-29T08:21:42;50645.50;;;-136.69;35.51
21879;BME280;27908;42.708;23.278;2023-07-29T08:24:08;50684.91;;;-136.69;35.69
21879;BME280;27908;42.708;23.278;2023-07-29T08:26:33;50647.47;;;-136.69;34.58
21879;BME280;27908;42.708;23.278;2023-07-29T08:28:59;50661.25;;;-136.69;33.57
21879;BME280;27908;42.708;23.278;2023-07-29T08:31:24;50686.88;;;-136.69;34.04
21879;BME280;27908;42.708;23.278;2023-07-29T08:33:49;50679.00;;;-136.69;32.12
21879;BME280;27908;42.708;23.278;2023-07-29T08:36:15;50702.63;;;-136.69;32.45
21879;BME280;27908;42.708;23.278;2023-07-29T08:38:41;50647.47;;;-136.69;32.44
21879;BME280;27908;42.708;23.278;2023-07-29T08:44:26;50720.34;;;-136.69;32.40
21879;BME280;27908;42.708;23.278;2023-07-29T08:46:56;50688.84;;;-136.69;31.18
21879;BME280;27908;42.708;23.278;2023-07-29T08:49:23;50704.59;;;-136.69;30.23
21879;BME280;27908;42.708;23.278;2023-07-29T08:51:49;50738.06;;;-136.69;31.30
21879;BME280;27908;42.708;23.278;2023-07-29T08:54:16;50706.56;;;-136.69;30.43
21879;BME280;27908;42.708;23.278;2023-07-29T08:56:42;50767.59;;;-136.69;30.43
21879;BME280;27908;42.708;23.278;2023-07-29T08:59:09;50787.31;;;-136.69;30.18
21879;BME280;27908;42.708;23.278;2023-07-29T09:01:35;50789.28;;;-136.69;30.33
21879;BME280;27908;42.708;23.278;2023-07-29T09:04:01;50785.34;;;-136.69;30.00
21879;BME280;27908;42.708;23.278;2023-07-29T09:06:26;50828.66;;;-136.69;30.05
21879;BME280;27908;42.708;23.278;2023-07-29T09:08:54;50828.66;;;-136.69;28.13
21879;BME280;27908;42.708;23.278;2023-07-29T09:11:21;50812.91;;;-136.69;28.43
21879;BME280;27908;42.708;23.278;2023-07-29T09:13:47;50836.53;;;-136.69;28.81
21879;BME280;27908;42.708;23.278;2023-07-29T09:16:14;50848.34;;;-136.69;29.63
21879;BME280;27908;42.708;23.278;2023-07-29T09:18:39;50903.50;;;-136.69;28.89
21879;BME280;27908;42.708;23.278;2023-07-29T09:21:05;50940.91;;;-136.69;28.08
21879;BME280;27908;42.708;23.278;2023-07-29T09:23:41;50889.72;;;-136.69;29.03
21879;BME280;27908;42.708;23.278;2023-07-29T09:26:07;50954.69;;;-136.69;27.48
21879;BME280;27908;42.708;23.278;2023-07-29T09:28:34;50982.28;;;-136.69;28.24
21879;BME280;27908;42.708;23.278;2023-07-29T09:31:00;50970.47;;;-136.69;27.36
21879;BME280;27908;42.708;23.278;2023-07-29T09:33:26;51061.06;;;-136.69;28.26
21879;BME280;27908;42.708;23.278;2023-07-29T09:35:52;51104.38;;;-136.69;27.82
21879;BME280;27908;42.708;23.278;2023-07-29T09:38:17;51131.97;;;-136.69;27.56
21879;BME280;27908;42.708;23.278;2023-07-29T09:40:43;51177.25;;;-136.69;26.58
21879;BME280;27908;42.708;23.278;2023-07-29T09:43:10;51206.81;;;-136.69;25.46
21879;BME280;27908;42.708;23.278;2023-07-29T09:45:36;51179.22;;;-136.69;25.99
21879;BME280;27908;42.708;23.278;2023-07-29T09:48:04;51161.50;;;-136.69;26.90
21879;BME280;27908;42.708;23.278;2023-07-29T09:50:35;51210.75;;;-136.69;27.38
21879;BME280;27908;42.708;23.278;2023-07-29T09:53:03;51232.41;;;-136.69;26.06
21879;BME280;27908;42.708;23.278;2023-07-29T09:55:29;51208.78;;;-136.69;24.58
21879;BME280;27908;42.708;23.278;2023-07-29T09:57:59;51200.91;;;-136.69;25.14
21879;BME280;27908;42.708;23.278;2023-07-29T10:00:31;51220.59;;;-136.69;24.83
21879;BME280;27908;42.708;23.278;2023-07-29T10:02:57;51228.47;;;-136.69;25.78
21879;BME280;27908;42.708;23.278;2023-07-29T10:05:25;51256.03;;;-136.69;24.78
21879;BME280;27908;42.708;23.278;2023-07-29T10:07:51;51289.53;;;-136.69;25.06
21879;BME280;27908;42.708;23.278;2023-07-29T10:10:17;51311.19;;;-136.69;24.10
21879;BME280;27908;42.708;23.278;2023-07-29T10:12:43;51293.47;;;-136.69;24.18
21879;BME280;27908;42.708;23.278;2023-07-29T10:15:08;51305.28;;;-136.69;22.87
21879;BME280;27908;42.708;23.278;2023-07-29T10:17:36;51352.56;;;-136.69;25.63
21879;BME280;27908;42.708;23.278;2023-07-29T10:20:03;51372.25;;;-136.69;24.74
21879;BME280;27908;42.708;23.278;2023-07-29T10:22:37;51360.44;;;-136.69;24.57
21879;BME280;27908;42.708;23.278;2023-07-29T10:25:07;51401.78;;;-136.69;25.31
21879;BME280;27908;42.708;23.278;2023-07-29T10:27:45;51437.25;;;-136.69;24.14
21879;BME280;27908;42.708;23.278;2023-07-29T10:30:12;51502.25;;;-136.69;23.46
21879;BME280;27908;42.708;23.278;2023-07-29T10:32:45;51374.22;;;-136.69;22.99
21879;BME280;27908;42.708;23.278;2023-07-29T10:35:12;51386.03;;;-136.69;24.73
21879;BME280;27908;42.708;23.278;2023-07-29T10:37:38;51482.56;;;-136.69;23.57
21879;BME280;27908;42.708;23.278;2023-07-29T10:40:09;51480.59;;;-136.69;22.53
21879;BME280;27908;42.708;23.278;2023-07-29T10:42:36;51506.19;;;-136.69;22.61
21879;BME280;27908;42.708;23.278;2023-07-29T10:45:18;51496.34;;;-136.69;22.76
21879;BME280;27908;42.708;23.278;2023-07-29T10:47:43;51557.41;;;-136.69;23.20
21879;BME280;27908;42.708;23.278;2023-07-29T10:50:17;51583.00;;;-136.69;22.40
21879;BME280;27908;42.708;23.278;2023-07-29T10:52:43;51620.44;;;-136.69;22.76
21879;BME280;27908;42.708;23.278;2023-07-29T10:55:34;51543.63;;;-136.69;21.62
21879;BME280;27908;42.708;23.278;2023-07-29T10:58:19;51470.75;;;-136.69;22.09
21879;BME280;27908;42.708;23.278;2023-07-29T11:00:45;51496.34;;;-136.69;22.22
21879;BME280;27908;42.708;23.278;2023-07-29T11:03:12;51435.28;;;-136.69;21.98
21879;BME280;27908;42.708;23.278;2023-07-29T11:05:52;51488.47;;;-136.69;23.23
21879;BME280;27908;42.708;23.278;2023-07-29T11:08:30;51484.53;;;-136.69;22.42
21879;BME280;27908;42.708;23.278;2023-07-29T11:11:05;51592.84;;;-136.69;21.97
21879;BME280;27908;42.708;23.278;2023-07-29T11:13:32;51496.34;;;-136.69;21.30
21879;BME280;27908;42.708;23.278;2023-07-29T11:15:58;51529.81;;;-136.69;22.56
21879;BME280;27908;42.708;23.278;2023-07-29T11:18:34;51553.47;;;-136.69;22.36
21879;BME280;27908;42.708;23.278;2023-07-29T11:21:01;51535.75;;;-136.69;21.49
21879;BME280;27908;42.708;23.278;2023-07-29T11:23:32;51525.88;;;-136.69;22.61
21879;BME280;27908;42.708;23.278;2023-07-29T11:25:58;51557.41;;;-136.69;21.51
21879;BME280;27908;42.708;23.278;2023-07-29T11:28:24;51557.41;;;-136.69;21.56
21879;BME280;27908;42.708;23.278;2023-07-29T11:30:50;51539.69;;;-136.69;20.75
21879;BME280;27908;42.708;23.278;2023-07-29T11:33:25;51606.66;;;-136.69;20.46
21879;BME280;27908;42.708;23.278;2023-07-29T11:35:51;51529.81;;;-136.69;20.40
21879;BME280;27908;42.708;23.278;2023-07-29T11:38:18;51600.75;;;-136.69;20.85
21879;BME280;27908;42.708;23.278;2023-07-29T11:40:48;51646.03;;;-136.69;20.27
21879;BME280;27908;42.708;23.278;2023-07-29T11:43:18;51630.28;;;-136.69;20.34
21879;BME280;27908;42.708;23.278;2023-07-29T11:45:44;51667.72;;;-136.69;19.32
21879;BME280;27908;42.708;23.278;2023-07-29T11:48:10;51699.22;;;-136.69;18.71
21879;BME280;27908;42.708;23.278;2023-07-29T11:50:35;51748.47;;;-136.69;18.85
21879;BME280;27908;42.708;23.278;2023-07-29T11:53:01;51738.63;;;-136.69;18.58
21879;BME280;27908;42.708;23.278;2023-07-29T11:55:26;51801.66;;;-136.69;19.34
21879;BME280;27908;42.708;23.278;2023-07-29T11:57:52;51754.38;;;-136.69;20.03
21879;BME280;27908;42.708;23.278;2023-07-29T12:00:17;51774.09;;;-136.69;19.43
21879;BME280;27908;42.708;23.278;2023-07-29T12:02:44;51833.19;;;-136.69;19.88
21879;BME280;27908;42.708;23.278;2023-07-29T12:05:11;51795.75;;;-136.69;19.64
21879;BME280;27908;42.708;23.278;2023-07-29T12:07:42;51866.66;;;-136.69;20.60
21879;BME280;27908;42.708;23.278;2023-07-29T12:10:08;51919.84;;;-136.69;19.32
21879;BME280;27908;42.708;23.278;2023-07-29T12:12:44;51913.94;;;-136.69;17.99
21879;BME280;27908;42.708;23.278;2023-07-29T12:15:09;51921.81;;;-136.69;18.57
21879;BME280;27908;42.708;23.278;2023-07-29T12:17:40;51961.22;;;-136.69;19.25
21879;BME280;27908;42.708;23.278;2023-07-29T12:20:08;51978.97;;;-136.69;19.79
21879;BME280;27908;42.708;23.278;2023-07-29T12:22:34;51994.72;;;-136.69;19.26
21879;BME280;27908;42.708;23.278;2023-07-29T12:24:59;52089.28;;;-136.69;18.96
21879;BME280;27908;42.708;23.278;2023-07-29T12:27:24;52120.78;;;-136.69;18.49
21879;BME280;27908;42.708;23.278;2023-07-29T12:29:52;52168.06;;;-136.69;19.17
21879;BME280;27908;42.708;23.278;2023-07-29T12:32:18;52256.72;;;-136.69;18.20
21879;BME280;27908;42.708;23.278;2023-07-29T12:34:44;52272.50;;;-136.69;18.34
21879;BME280;27908;42.708;23.278;2023-07-29T12:37:09;52256.72;;;-136.69;18.27